Time;durP1;ratioP1;P1;durP2;ratioP2;P2;SDS_P1;SDS_P2;PMS_P1;PMS_P2;Temp;Humidity;BMP_temperature;BMP_pressure;BME280_temperature;BME280_humidity;BME280_pressure;Samples;Min_cycle;Max_cycle;Signal;HPM_P1;HPM_P2
2023/05/30 00:02:21;;;;;;;19.33;5.77;;;;;;;;;;5053746;28;20192;-79
2023/05/30 00:04:49;;;;;;;18.10;5.70;;;;;;;;;;5053487;28;20724;-78
2023/05/30 00:07:17;;;;;;;16.57;5.30;;;;;;;;;;5053683;28;20196;-78
2023/05/30 00:09:45;;;;;;;15.63;6.00;;;;;;;;;;5053773;28;20196;-78
2023/05/30 00:12:12;;;;;;;18.23;6.03;;;;;;;;;;5052999;28;20200;-78
2023/05/30 00:14:41;;;;;;;16.67;5.77;;;;;;;;;;5053645;28;20196;-78
2023/05/30 00:17:08;;;;;;;18.83;6.50;;;;;;;;;;5053576;28;20203;-78
2023/05/30 00:19:36;;;;;;;14.47;5.87;;;;;;;;;;5053096;28;20279;-79
2023/05/30 00:22:04;;;;;;;17.37;6.33;;;;;;;;;;5053847;28;20200;-79
2023/05/30 00:24:32;;;;;;;18.53;6.47;;;;;;;;;;5053266;28;20285;-79
2023/05/30 00:27:00;;;;;;;16.53;6.40;;;;;;;;;;5052396;28;20206;-78
2023/05/30 00:29:27;;;;;;;14.90;6.03;;;;;;;;;;5052918;28;20196;-77
2023/05/30 00:31:55;;;;;;;18.53;5.97;;;;;;;;;;5053031;28;20661;-79
2023/05/30 00:34:23;;;;;;;21.33;6.00;;;;;;;;;;5052999;28;20273;-79
2023/05/30 00:36:50;;;;;;;19.97;6.33;;;;;;;;;;5053218;28;20291;-77
2023/05/30 00:39:17;;;;;;;17.03;6.70;;;;;;;;;;5052831;28;20206;-77
2023/05/30 00:41:45;;;;;;;15.77;6.13;;;;;;;;;;5052665;28;20196;-79
2023/05/30 00:44:12;;;;;;;18.40;5.53;;;;;;;;;;5051829;28;20763;-79
2023/05/30 00:46:39;;;;;;;15.80;6.07;;;;;;;;;;5053090;28;20287;-79
2023/05/30 00:49:08;;;;;;;18.10;5.63;;;;;;;;;;5052769;28;20195;-79
2023/05/30 00:51:35;;;;;;;20.00;6.80;;;;;;;;;;5052496;28;20287;-80
2023/05/30 00:54:03;;;;;;;20.23;5.73;;;;;;;;;;5052371;28;20328;-79
2023/05/30 00:56:31;;;;;;;18.43;6.57;;;;;;;;;;5052997;28;20223;-79
2023/05/30 00:58:59;;;;;;;20.13;6.47;;;;;;;;;;5052725;28;20664;-79
2023/05/30 01:01:27;;;;;;;15.37;5.67;;;;;;;;;;5052290;28;20291;-79
2023/05/30 01:03:54;;;;;;;17.83;5.90;;;;;;;;;;5052808;28;20277;-79
2023/05/30 01:06:23;;;;;;;17.40;6.73;;;;;;;;;;5052185;28;20293;-79
2023/05/30 01:08:51;;;;;;;18.20;6.20;;;;;;;;;;5051701;28;20942;-79
2023/05/30 01:11:23;;;;;;;18.10;6.10;;;;;;;;;;5052538;28;20200;-79
2023/05/30 01:13:54;;;;;;;17.67;6.23;;;;;;;;;;5052453;28;20753;-79
2023/05/30 01:16:24;;;;;;;16.80;6.07;;;;;;;;;;5052795;28;20202;-79
2023/05/30 01:18:55;;;;;;;16.67;5.77;;;;;;;;;;5051945;28;20200;-78
2023/05/30 01:21:25;;;;;;;15.23;5.40;;;;;;;;;;5052053;28;20719;-79
2023/05/30 01:24:00;;;;;;;16.07;5.97;;;;;;;;;;5051742;28;20295;-79
2023/05/30 01:26:41;;;;;;;16.13;6.00;;;;;;;;;;5052082;28;20236;-78
2023/05/30 01:29:14;;;;;;;20.27;6.03;;;;;;;;;;5052234;28;20192;-80
2023/05/30 01:31:41;;;;;;;15.30;5.97;;;;;;;;;;5051895;28;20234;-80
2023/05/30 01:34:09;;;;;;;15.33;5.77;;;;;;;;;;5051328;28;20704;-78
2023/05/30 01:36:37;;;;;;;19.57;6.13;;;;;;;;;;5033015;28;20215;-79
2023/05/30 01:39:04;;;;;;;15.50;6.00;;;;;;;;;;5020030;28;20709;-79
2023/05/30 01:41:36;;;;;;;17.07;5.93;;;;;;;;;;5012170;28;20678;-78
2023/05/30 01:44:07;;;;;;;16.17;6.30;;;;;;;;;;5012011;28;20287;-79
2023/05/30 01:46:36;;;;;;;19.07;5.90;;;;;;;;;;5011896;28;20263;-78
2023/05/30 01:49:09;;;;;;;13.33;6.10;;;;;;;;;;5012153;28;20287;-79
2023/05/30 01:51:39;;;;;;;15.00;5.70;;;;;;;;;;5011971;28;20199;-79
2023/05/30 01:54:09;;;;;;;14.70;6.10;;;;;;;;;;5011838;28;20292;-79
2023/05/30 01:56:36;;;;;;;18.47;5.70;;;;;;;;;;5011923;28;20311;-79
2023/05/30 01:59:05;;;;;;;19.00;6.33;;;;;;;;;;5011797;28;20737;-80
2023/05/30 02:01:32;;;;;;;13.07;5.93;;;;;;;;;;5011864;28;20197;-79
2023/05/30 02:04:00;;;;;;;13.33;6.10;;;;;;;;;;5011808;28;20280;-79
2023/05/30 02:06:28;;;;;;;16.20;5.97;;;;;;;;;;5011624;28;20324;-79
2023/05/30 02:08:55;;;;;;;17.37;6.80;;;;;;;;;;5011675;28;20239;-79
2023/05/30 02:11:22;;;;;;;17.03;6.20;;;;;;;;;;5011399;28;20228;-79
2023/05/30 02:13:50;;;;;;;21.60;6.30;;;;;;;;;;5013608;28;20291;-79
2023/05/30 02:16:18;;;;;;;13.90;5.90;;;;;;;;;;5051758;28;20235;-79
2023/05/30 02:18:45;;;;;;;18.10;6.53;;;;;;;;;;5051217;28;20203;-79
2023/05/30 02:21:14;;;;;;;15.03;5.93;;;;;;;;;;5051153;28;20203;-78
2023/05/30 02:23:41;;;;;;;15.97;6.23;;;;;;;;;;5051238;28;20660;-79
2023/05/30 02:26:08;;;;;;;19.80;5.77;;;;;;;;;;5051086;28;20317;-78
2023/05/30 02:28:35;;;;;;;18.37;5.67;;;;;;;;;;5050994;28;20201;-79
2023/05/30 02:31:03;;;;;;;23.43;6.40;;;;;;;;;;5051406;28;20656;-77
2023/05/30 02:33:30;;;;;;;17.43;6.10;;;;;;;;;;5050898;28;20223;-78
2023/05/30 02:35:57;;;;;;;17.43;5.93;;;;;;;;;;5050602;28;20198;-78
2023/05/30 02:38:26;;;;;;;16.63;5.30;;;;;;;;;;5050793;28;20682;-79
2023/05/30 02:40:53;;;;;;;11.33;5.27;;;;;;;;;;5051366;28;20644;-79
2023/05/30 02:43:21;;;;;;;16.50;5.80;;;;;;;;;;5050735;28;20200;-78
2023/05/30 02:45:49;;;;;;;20.57;6.27;;;;;;;;;;5051146;28;20234;-78
2023/05/30 02:48:16;;;;;;;16.33;5.60;;;;;;;;;;5050649;28;20239;-78
2023/05/30 02:50:43;;;;;;;14.87;5.70;;;;;;;;;;5050623;28;20290;-79
2023/05/30 02:53:11;;;;;;;15.57;5.73;;;;;;;;;;5051292;28;20294;-80
2023/05/30 02:55:42;;;;;;;18.47;6.27;;;;;;;;;;5051082;28;20719;-78
2023/05/30 02:58:11;;;;;;;16.97;5.70;;;;;;;;;;5050996;28;20199;-79
2023/05/30 03:00:39;;;;;;;15.00;6.10;;;;;;;;;;5050639;28;20204;-78
2023/05/30 03:03:08;;;;;;;15.77;5.93;;;;;;;;;;5050981;28;20222;-78
2023/05/30 03:05:35;;;;;;;15.83;6.17;;;;;;;;;;5050416;28;20277;-78
2023/05/30 03:08:03;;;;;;;16.47;5.87;;;;;;;;;;5052123;28;20200;-79
2023/05/30 03:10:30;;;;;;;13.77;5.50;;;;;;;;;;5054877;28;20295;-79
2023/05/30 03:12:58;;;;;;;15.43;5.83;;;;;;;;;;5054810;28;20252;-79
2023/05/30 03:15:26;;;;;;;14.27;5.90;;;;;;;;;;5054856;28;20291;-79
2023/05/30 03:17:54;;;;;;;19.60;6.60;;;;;;;;;;5054685;28;20227;-79
2023/05/30 03:20:23;;;;;;;19.07;6.20;;;;;;;;;;5053979;28;20203;-78
2023/05/30 03:22:50;;;;;;;14.17;5.33;;;;;;;;;;5054922;28;20210;-78
2023/05/30 03:25:17;;;;;;;17.80;5.77;;;;;;;;;;5054498;28;20233;-78
2023/05/30 03:27:50;;;;;;;20.93;6.57;;;;;;;;;;5054584;28;20196;-78
2023/05/30 03:30:20;;;;;;;17.53;6.23;;;;;;;;;;5054651;28;20200;-78
2023/05/30 03:32:48;;;;;;;12.60;5.43;;;;;;;;;;5054225;28;20222;-78
2023/05/30 03:35:15;;;;;;;12.20;5.00;;;;;;;;;;5053588;28;20239;-78
2023/05/30 03:37:43;;;;;;;14.40;5.60;;;;;;;;;;5054589;28;20709;-78
2023/05/30 03:40:10;;;;;;;12.83;4.97;;;;;;;;;;5053976;28;20196;-78
2023/05/30 03:42:38;;;;;;;17.63;6.53;;;;;;;;;;5054220;28;20205;-77
2023/05/30 03:45:05;;;;;;;16.63;6.03;;;;;;;;;;5054171;28;20205;-78
2023/05/30 03:47:34;;;;;;;14.57;5.43;;;;;;;;;;5054227;28;20290;-77
2023/05/30 03:50:01;;;;;;;15.13;5.37;;;;;;;;;;5053812;28;20202;-78
2023/05/30 03:52:28;;;;;;;18.70;6.00;;;;;;;;;;5054020;28;20753;-78
2023/05/30 03:54:55;;;;;;;15.77;6.07;;;;;;;;;;5053753;28;20945;-79
2023/05/30 03:57:22;;;;;;;21.83;5.93;;;;;;;;;;5053763;28;20658;-78
2023/05/30 03:59:50;;;;;;;17.90;5.60;;;;;;;;;;5053897;28;20223;-79
2023/05/30 04:02:17;;;;;;;19.30;6.40;;;;;;;;;;5053446;28;20192;-79
2023/05/30 04:04:45;;;;;;;16.57;5.80;;;;;;;;;;5054059;28;20290;-78
2023/05/30 04:07:12;;;;;;;16.83;5.70;;;;;;;;;;5053624;28;20228;-79
2023/05/30 04:09:40;;;;;;;17.23;6.10;;;;;;;;;;5053829;28;20195;-77
2023/05/30 04:12:07;;;;;;;17.87;6.10;;;;;;;;;;5053550;28;20295;-78
2023/05/30 04:14:34;;;;;;;13.30;5.80;;;;;;;;;;5053430;28;20289;-78
2023/05/30 04:17:02;;;;;;;18.67;5.50;;;;;;;;;;5052955;28;20289;-79
2023/05/30 04:19:29;;;;;;;19.43;6.27;;;;;;;;;;5051556;28;20291;-77
2023/05/30 04:21:58;;;;;;;17.90;5.60;;;;;;;;;;5054020;28;20196;-77
2023/05/30 04:24:25;;;;;;;19.77;6.23;;;;;;;;;;5053486;28;20231;-77
2023/05/30 04:26:52;;;;;;;16.67;5.63;;;;;;;;;;5053374;28;20317;-79
2023/05/30 04:29:20;;;;;;;18.03;6.10;;;;;;;;;;5053128;28;20242;-79
2023/05/30 04:31:47;;;;;;;16.20;5.47;;;;;;;;;;5053170;28;20207;-79
2023/05/30 04:34:17;;;;;;;20.23;5.57;;;;;;;;;;5052910;28;20658;-77
2023/05/30 04:36:45;;;;;;;14.27;5.77;;;;;;;;;;5053547;28;20265;-79
2023/05/30 04:39:13;;;;;;;12.70;5.27;;;;;;;;;;5053064;28;20571;-79
2023/05/30 04:41:41;;;;;;;18.93;5.70;;;;;;;;;;5037567;28;20211;-78
2023/05/30 04:44:08;;;;;;;17.17;6.13;;;;;;;;;;5032992;28;20197;-79
2023/05/30 04:46:36;;;;;;;16.17;5.53;;;;;;;;;;5032637;28;20326;-80
2023/05/30 04:49:03;;;;;;;14.80;5.77;;;;;;;;;;5033040;28;20671;-79
2023/05/30 04:51:32;;;;;;;18.70;5.70;;;;;;;;;;5033234;28;20295;-77
2023/05/30 04:54:00;;;;;;;13.47;5.13;;;;;;;;;;5033237;28;20198;-77
2023/05/30 04:56:28;;;;;;;18.90;5.90;;;;;;;;;;5032897;28;20196;-79
2023/05/30 04:58:55;;;;;;;15.77;5.67;;;;;;;;;;5033068;28;20283;-78
2023/05/30 05:01:24;;;;;;;17.03;5.70;;;;;;;;;;5032307;28;20283;-79
2023/05/30 05:03:51;;;;;;;17.33;5.37;;;;;;;;;;5033355;28;20220;-78
2023/05/30 05:06:19;;;;;;;16.53;5.90;;;;;;;;;;5032625;28;20309;-78
2023/05/30 05:08:46;;;;;;;18.57;5.50;;;;;;;;;;5032600;28;20250;-78
2023/05/30 05:11:14;;;;;;;14.17;5.50;;;;;;;;;;5032489;28;20610;-78
2023/05/30 05:13:43;;;;;;;15.40;5.73;;;;;;;;;;5032354;28;20205;-77
2023/05/30 05:16:10;;;;;;;15.70;5.00;;;;;;;;;;5012515;28;20284;-77
2023/05/30 05:18:37;;;;;;;20.23;5.70;;;;;;;;;;5012957;28;20197;-78
2023/05/30 05:21:06;;;;;;;16.77;5.17;;;;;;;;;;5012421;28;20219;-76
2023/05/30 05:23:33;;;;;;;15.40;5.53;;;;;;;;;;5012143;28;20215;-76
2023/05/30 05:26:01;;;;;;;17.73;5.70;;;;;;;;;;5012398;28;20303;-78
2023/05/30 05:28:28;;;;;;;17.10;5.73;;;;;;;;;;5012405;28;20193;-78
2023/05/30 05:30:58;;;;;;;16.50;5.53;;;;;;;;;;5012017;28;20198;-77
2023/05/30 05:33:25;;;;;;;13.47;4.93;;;;;;;;;;5012413;28;20197;-78
2023/05/30 05:35:52;;;;;;;15.17;5.40;;;;;;;;;;5012405;28;20296;-77
2023/05/30 05:38:19;;;;;;;16.70;4.77;;;;;;;;;;5012224;28;20367;-78
2023/05/30 05:40:46;;;;;;;14.43;5.20;;;;;;;;;;5018215;28;20279;-77
2023/05/30 05:43:14;;;;;;;16.77;5.50;;;;;;;;;;5029769;28;20200;-76
2023/05/30 05:45:41;;;;;;;13.47;4.70;;;;;;;;;;5051064;28;20196;-77
2023/05/30 05:48:09;;;;;;;16.43;4.80;;;;;;;;;;5050900;28;20203;-77
2023/05/30 05:50:37;;;;;;;12.03;4.83;;;;;;;;;;5051712;28;20279;-77
2023/05/30 05:53:04;;;;;;;11.00;4.80;;;;;;;;;;5051697;28;20210;-78
2023/05/30 05:55:31;;;;;;;13.07;4.63;;;;;;;;;;5051646;28;20286;-78
2023/05/30 05:57:58;;;;;;;13.20;4.37;;;;;;;;;;5051967;28;20581;-78
2023/05/30 06:00:26;;;;;;;12.07;4.63;;;;;;;;;;5051593;28;20192;-77
2023/05/30 06:02:53;;;;;;;14.40;4.60;;;;;;;;;;5051515;28;20688;-77
2023/05/30 06:05:22;;;;;;;15.20;5.17;;;;;;;;;;5051627;28;20198;-78
2023/05/30 06:07:49;;;;;;;12.20;4.57;;;;;;;;;;5051425;28;20854;-77
2023/05/30 06:10:16;;;;;;;14.20;4.73;;;;;;;;;;5051638;28;20279;-76
2023/05/30 06:12:44;;;;;;;14.20;4.40;;;;;;;;;;5051078;28;20282;-77
2023/05/30 06:15:12;;;;;;;13.47;4.53;;;;;;;;;;5039561;28;20307;-78
2023/05/30 06:17:39;;;;;;;13.90;4.30;;;;;;;;;;5031621;28;20192;-78
2023/05/30 06:20:07;;;;;;;15.83;4.60;;;;;;;;;;5031319;28;20200;-77
2023/05/30 06:22:36;;;;;;;14.93;4.13;;;;;;;;;;5031384;28;20330;-77
2023/05/30 06:25:03;;;;;;;11.10;4.15;;;;;;;;;;5031774;28;20295;-78
2023/05/30 06:27:30;;;;;;;12.50;4.00;;;;;;;;;;5030737;28;20224;-77
2023/05/30 06:29:57;;;;;;;17.60;4.53;;;;;;;;;;5031332;28;20300;-78
2023/05/30 06:32:24;;;;;;;11.40;4.53;;;;;;;;;;5031281;28;20216;-78
2023/05/30 06:34:51;;;;;;;13.38;4.50;;;;;;;;;;5031129;28;20236;-77
2023/05/30 06:37:19;;;;;;;11.65;3.70;;;;;;;;;;5031542;28;20292;-78
2023/05/30 06:39:47;;;;;;;13.52;4.47;;;;;;;;;;5031048;28;20228;-78
2023/05/30 06:42:14;;;;;;;12.05;4.20;;;;;;;;;;5030853;28;20398;-79
2023/05/30 06:44:41;;;;;;;13.30;4.47;;;;;;;;;;5035455;28;20279;-78
2023/05/30 06:47:09;;;;;;;10.82;4.10;;;;;;;;;;5035485;28;20235;-77
2023/05/30 06:49:36;;;;;;;11.38;4.10;;;;;;;;;;5035697;28;20255;-78
2023/05/30 06:52:03;;;;;;;14.10;4.18;;;;;;;;;;5035300;28;20295;-77
2023/05/30 06:54:30;;;;;;;11.88;3.58;;;;;;;;;;5035329;28;20242;-78
2023/05/30 06:57:02;;;;;;;11.52;3.92;;;;;;;;;;5034523;28;20206;-79
2023/05/30 06:59:29;;;;;;;13.02;4.25;;;;;;;;;;5034832;28;20688;-78
2023/05/30 07:01:57;;;;;;;9.45;3.80;;;;;;;;;;5035238;28;20238;-78
2023/05/30 07:04:24;;;;;;;11.02;4.22;;;;;;;;;;5035135;28;20291;-78
2023/05/30 07:06:51;;;;;;;10.70;3.50;;;;;;;;;;5034819;28;20228;-79
2023/05/30 07:09:18;;;;;;;9.85;3.47;;;;;;;;;;5035064;28;20220;-78
2023/05/30 07:11:45;;;;;;;13.55;4.35;;;;;;;;;;5034352;28;20200;-78
2023/05/30 07:14:14;;;;;;;10.23;4.20;;;;;;;;;;5038918;28;20700;-79
2023/05/30 07:16:41;;;;;;;10.57;3.72;;;;;;;;;;5054954;28;20295;-78
2023/05/30 07:19:08;;;;;;;11.73;3.85;;;;;;;;;;5055058;28;20199;-78
2023/05/30 07:21:36;;;;;;;12.25;3.70;;;;;;;;;;5054704;28;20290;-78
2023/05/30 07:24:03;;;;;;;15.07;3.78;;;;;;;;;;5054464;28;20202;-77
2023/05/30 07:26:31;;;;;;;9.75;3.88;;;;;;;;;;5054182;28;20318;-78
2023/05/30 07:28:58;;;;;;;9.48;3.72;;;;;;;;;;5054695;28;20196;-79
2023/05/30 07:31:26;;;;;;;9.75;3.60;;;;;;;;;;5054513;28;20661;-78
2023/05/30 07:33:53;;;;;;;11.07;3.88;;;;;;;;;;5054260;28;20259;-79
2023/05/30 07:36:21;;;;;;;11.23;3.85;;;;;;;;;;5054391;28;20228;-78
2023/05/30 07:38:48;;;;;;;10.32;3.78;;;;;;;;;;5054363;28;20280;-79
2023/05/30 07:41:15;;;;;;;10.25;4.00;;;;;;;;;;5053857;28;20210;-79
2023/05/30 07:43:42;;;;;;;10.18;3.78;;;;;;;;;;5054136;28;20235;-79
2023/05/30 07:46:10;;;;;;;10.30;3.95;;;;;;;;;;5053919;28;20295;-77
2023/05/30 07:48:40;;;;;;;10.50;3.70;;;;;;;;;;5053816;28;20266;-77
2023/05/30 07:51:08;;;;;;;9.27;3.55;;;;;;;;;;5054269;28;20637;-78
2023/05/30 07:53:36;;;;;;;9.48;3.75;;;;;;;;;;5054118;28;20227;-79
2023/05/30 07:56:03;;;;;;;11.27;3.80;;;;;;;;;;5053786;28;20211;-78
2023/05/30 07:58:30;;;;;;;9.27;3.60;;;;;;;;;;5054135;28;20309;-78
2023/05/30 08:00:59;;;;;;;11.00;3.88;;;;;;;;;;5053916;28;20287;-79
2023/05/30 08:03:26;;;;;;;12.23;3.83;;;;;;;;;;5054056;28;20279;-79
2023/05/30 08:05:55;;;;;;;9.95;3.70;;;;;;;;;;5054293;28;20282;-79
2023/05/30 08:08:22;;;;;;;10.55;3.80;;;;;;;;;;5053948;28;20255;-79
2023/05/30 08:10:49;;;;;;;8.90;3.58;;;;;;;;;;5053150;28;20199;-78
2023/05/30 08:13:16;;;;;;;11.27;3.78;;;;;;;;;;5053758;28;20290;-79
2023/05/30 08:15:44;;;;;;;11.45;3.70;;;;;;;;;;5053867;28;20204;-79
2023/05/30 08:18:12;;;;;;;11.00;3.92;;;;;;;;;;5053698;28;20299;-79
2023/05/30 08:20:39;;;;;;;9.07;3.63;;;;;;;;;;5053796;28;20287;-79
2023/05/30 08:23:07;;;;;;;9.95;3.22;;;;;;;;;;5054017;28;20206;-78
2023/05/30 08:25:35;;;;;;;9.50;3.95;;;;;;;;;;5053057;28;20654;-79
2023/05/30 08:28:02;;;;;;;8.68;3.65;;;;;;;;;;5053484;28;20224;-77
2023/05/30 08:30:30;;;;;;;10.55;3.53;;;;;;;;;;5053711;28;20252;-79
2023/05/30 08:32:57;;;;;;;7.45;3.33;;;;;;;;;;5053172;28;20295;-79
2023/05/30 08:35:24;;;;;;;10.38;3.40;;;;;;;;;;5053201;28;20653;-79
2023/05/30 08:37:51;;;;;;;9.60;3.70;;;;;;;;;;5053101;28;20230;-78
2023/05/30 08:40:20;;;;;;;13.05;3.58;;;;;;;;;;5053396;28;20249;-78
2023/05/30 08:42:48;;;;;;;10.65;3.45;;;;;;;;;;5052871;28;20660;-79
2023/05/30 08:45:15;;;;;;;10.50;3.47;;;;;;;;;;5053117;28;20223;-79
2023/05/30 08:47:43;;;;;;;9.98;3.70;;;;;;;;;;5053473;28;20319;-79
2023/05/30 08:50:11;;;;;;;6.15;3.05;;;;;;;;;;5053398;28;20623;-79
2023/05/30 08:52:39;;;;;;;6.97;3.15;;;;;;;;;;5052564;28;20195;-79
2023/05/30 08:55:10;;;;;;;9.70;3.72;;;;;;;;;;5053491;28;20249;-79
2023/05/30 08:57:41;;;;;;;6.88;3.70;;;;;;;;;;5052821;28;20195;-79
2023/05/30 09:00:10;;;;;;;8.15;3.67;;;;;;;;;;5052532;28;20287;-80
2023/05/30 09:02:38;;;;;;;6.97;3.20;;;;;;;;;;5053115;28;20200;-79
2023/05/30 09:05:06;;;;;;;10.05;3.67;;;;;;;;;;5051972;28;20228;-80
2023/05/30 09:07:33;;;;;;;8.50;3.60;;;;;;;;;;5052113;28;20238;-80
2023/05/30 09:10:01;;;;;;;8.95;3.17;;;;;;;;;;5052637;28;20287;-79
2023/05/30 09:12:29;;;;;;;8.25;3.65;;;;;;;;;;5052845;28;20230;-79
2023/05/30 09:14:57;;;;;;;9.02;3.80;;;;;;;;;;5052935;28;20257;-80
2023/05/30 09:17:24;;;;;;;10.65;3.78;;;;;;;;;;5052618;28;20287;-80
2023/05/30 09:19:53;;;;;;;7.68;3.40;;;;;;;;;;5052452;28;20247;-80
2023/05/30 09:22:21;;;;;;;7.32;3.38;;;;;;;;;;5051795;28;20204;-80
2023/05/30 09:25:00;;;;;;;6.57;3.50;;;;;;;;;;5052855;28;20257;-80
2023/05/30 09:27:28;;;;;;;8.80;3.72;;;;;;;;;;5052106;28;20231;-80
2023/05/30 09:29:55;;;;;;;9.07;3.42;;;;;;;;;;5052030;28;20728;-80
2023/05/30 09:32:28;;;;;;;9.13;3.38;;;;;;;;;;5052127;28;20196;-81
2023/05/30 09:34:57;;;;;;;10.52;3.47;;;;;;;;;;5052369;28;20342;-80
2023/05/30 09:37:24;;;;;;;7.20;3.50;;;;;;;;;;5051404;28;20207;-79
2023/05/30 09:40:08;;;;;;;8.55;3.67;;;;;;;;;;5052323;28;20196;-80
2023/05/30 09:42:39;;;;;;;7.20;3.25;;;;;;;;;;5052226;28;20199;-79
2023/05/30 09:45:07;;;;;;;8.90;4.15;;;;;;;;;;5052023;28;20218;-80
2023/05/30 09:47:38;;;;;;;9.57;3.67;;;;;;;;;;5052092;28;20330;-80
2023/05/30 09:50:06;;;;;;;8.05;3.85;;;;;;;;;;5051868;28;20238;-79
2023/05/30 09:52:33;;;;;;;9.93;3.40;;;;;;;;;;5052307;28;20200;-80
2023/05/30 09:55:01;;;;;;;9.57;3.67;;;;;;;;;;5051798;28;20764;-79
2023/05/30 09:57:29;;;;;;;9.73;3.40;;;;;;;;;;5051677;28;20227;-80
2023/05/30 09:59:57;;;;;;;10.20;3.63;;;;;;;;;;5051609;28;20664;-79
2023/05/30 10:02:24;;;;;;;13.82;3.78;;;;;;;;;;5051866;28;20291;-79
2023/05/30 10:04:53;;;;;;;9.50;3.65;;;;;;;;;;5051564;28;20195;-79
2023/05/30 10:07:21;;;;;;;10.02;3.63;;;;;;;;;;5051391;28;20254;-79
2023/05/30 10:09:50;;;;;;;10.10;3.80;;;;;;;;;;5051975;28;20286;-79
2023/05/30 10:12:17;;;;;;;7.38;3.30;;;;;;;;;;5051595;28;20286;-80
2023/05/30 10:14:44;;;;;;;8.27;3.50;;;;;;;;;;5051176;28;20200;-79
2023/05/30 10:17:14;;;;;;;8.07;3.25;;;;;;;;;;5051601;28;20223;-79
2023/05/30 10:19:44;;;;;;;8.38;3.83;;;;;;;;;;5051402;28;20279;-79
2023/05/30 10:22:14;;;;;;;9.50;3.42;;;;;;;;;;5051416;28;20631;-80
2023/05/30 10:24:43;;;;;;;8.52;3.50;;;;;;;;;;5051369;28;20223;-79
2023/05/30 10:27:12;;;;;;;6.63;3.40;;;;;;;;;;5051354;28;20199;-79
2023/05/30 10:29:49;;;;;;;7.22;3.63;;;;;;;;;;5051800;28;20199;-78
2023/05/30 10:32:17;;;;;;;7.53;3.60;;;;;;;;;;5051118;28;20282;-79
2023/05/30 10:34:49;;;;;;;9.38;3.83;;;;;;;;;;5050661;28;20242;-79
2023/05/30 10:37:18;;;;;;;7.65;3.33;;;;;;;;;;5051439;28;20283;-79
2023/05/30 10:39:53;;;;;;;9.65;3.38;;;;;;;;;;5051979;28;20572;-79
2023/05/30 10:42:22;;;;;;;8.63;3.80;;;;;;;;;;5051079;28;20555;-80
2023/05/30 10:44:54;;;;;;;11.48;4.20;;;;;;;;;;5051356;28;20747;-79
2023/05/30 10:47:27;;;;;;;5.32;3.30;;;;;;;;;;5051223;28;20283;-79
2023/05/30 10:49:56;;;;;;;9.05;3.63;;;;;;;;;;5050549;28;20286;-79
2023/05/30 10:52:32;;;;;;;8.07;3.58;;;;;;;;;;5050800;28;20295;-79
2023/05/30 10:55:00;;;;;;;12.02;3.63;;;;;;;;;;5051314;28;20282;-80
2023/05/30 10:57:28;;;;;;;9.50;3.78;;;;;;;;;;5050878;28;20195;-78
2023/05/30 10:59:55;;;;;;;9.07;3.38;;;;;;;;;;5051010;28;20199;-80
2023/05/30 11:02:35;;;;;;;8.88;3.28;;;;;;;;;;5051263;28;20210;-79
2023/05/30 11:05:06;;;;;;;9.23;3.75;;;;;;;;;;5050883;28;20199;-79
2023/05/30 11:07:37;;;;;;;8.20;3.80;;;;;;;;;;5051228;28;20200;-80
2023/05/30 11:10:05;;;;;;;8.18;3.47;;;;;;;;;;5051095;28;20638;-79
2023/05/30 11:12:33;;;;;;;8.23;3.30;;;;;;;;;;5050406;28;20290;-80
2023/05/30 11:15:00;;;;;;;8.68;3.50;;;;;;;;;;5051305;28;20204;-79
2023/05/30 11:17:32;;;;;;;7.97;3.65;;;;;;;;;;5050294;28;20370;-79
2023/05/30 11:20:07;;;;;;;8.60;4.00;;;;;;;;;;5050870;28;20198;-79
2023/05/30 11:22:36;;;;;;;8.10;3.85;;;;;;;;;;5050770;28;20200;-79
2023/05/30 11:25:19;;;;;;;14.65;4.60;;;;;;;;;;5050897;28;20196;-80
2023/05/30 11:28:02;;;;;;;10.13;3.50;;;;;;;;;;5051073;28;20253;-79
2023/05/30 11:30:29;;;;;;;6.28;3.38;;;;;;;;;;5054226;28;20200;-79
2023/05/30 11:32:58;;;;;;;7.53;3.28;;;;;;;;;;5054239;28;20227;-80
2023/05/30 11:35:26;;;;;;;6.90;3.28;;;;;;;;;;5054382;28;20235;-80
2023/05/30 11:37:55;;;;;;;7.70;3.55;;;;;;;;;;5054382;28;20203;-78
2023/05/30 11:40:22;;;;;;;8.00;3.50;;;;;;;;;;5054853;28;20223;-80
2023/05/30 11:42:52;;;;;;;10.38;3.60;;;;;;;;;;5054041;28;20235;-79
2023/05/30 11:45:19;;;;;;;6.88;3.40;;;;;;;;;;5053956;28;20196;-79
2023/05/30 11:47:46;;;;;;;12.38;3.72;;;;;;;;;;5053558;28;20295;-79
2023/05/30 11:50:14;;;;;;;8.52;3.25;;;;;;;;;;5054132;28;20293;-80
2023/05/30 11:52:41;;;;;;;7.45;3.63;;;;;;;;;;5054461;28;20295;-79
2023/05/30 11:55:10;;;;;;;8.73;3.67;;;;;;;;;;5054080;28;20287;-79
2023/05/30 11:57:37;;;;;;;7.38;3.55;;;;;;;;;;5053926;28;20198;-80
2023/05/30 12:00:08;;;;;;;7.25;3.80;;;;;;;;;;5054097;28;20643;-79
2023/05/30 12:02:35;;;;;;;7.13;3.88;;;;;;;;;;5053445;28;20203;-80
2023/05/30 12:05:02;;;;;;;10.27;3.85;;;;;;;;;;5053991;28;20196;-78
2023/05/30 12:07:30;;;;;;;8.00;3.15;;;;;;;;;;5054156;28;20199;-80
2023/05/30 12:09:57;;;;;;;8.00;3.45;;;;;;;;;;5053826;28;20266;-79
2023/05/30 12:12:26;;;;;;;7.35;3.90;;;;;;;;;;5053788;28;20287;-78
2023/05/30 12:15:03;;;;;;;6.95;3.40;;;;;;;;;;5053656;28;20211;-79
2023/05/30 12:17:30;;;;;;;9.93;3.55;;;;;;;;;;5053216;28;20271;-79
2023/05/30 12:19:58;;;;;;;8.35;4.20;;;;;;;;;;5053606;28;20223;-80
2023/05/30 12:22:25;;;;;;;7.15;3.55;;;;;;;;;;5053898;28;20287;-80
2023/05/30 12:24:53;;;;;;;8.98;3.50;;;;;;;;;;5053663;28;20642;-79
2023/05/30 12:27:21;;;;;;;7.35;3.70;;;;;;;;;;5053585;28;20223;-79
2023/05/30 12:29:50;;;;;;;7.32;3.95;;;;;;;;;;5052929;28;20801;-79
2023/05/30 12:32:23;;;;;;;6.40;3.47;;;;;;;;;;5053267;28;20191;-79
2023/05/30 12:34:50;;;;;;;8.40;3.50;;;;;;;;;;5053252;28;20334;-79
2023/05/30 12:37:18;;;;;;;10.73;3.75;;;;;;;;;;5053834;28;20298;-80
2023/05/30 12:39:48;;;;;;;8.55;3.67;;;;;;;;;;5052689;28;20290;-79
2023/05/30 12:42:21;;;;;;;7.95;4.05;;;;;;;;;;5052925;28;20308;-79
2023/05/30 12:44:53;;;;;;;7.15;3.50;;;;;;;;;;5052390;28;20199;-78
2023/05/30 12:47:20;;;;;;;9.38;3.70;;;;;;;;;;5052796;28;20740;-78
2023/05/30 12:49:48;;;;;;;8.70;3.65;;;;;;;;;;5052987;28;20227;-78
2023/05/30 12:52:15;;;;;;;9.63;3.72;;;;;;;;;;5053108;28;20246;-78
2023/05/30 12:54:43;;;;;;;9.48;3.78;;;;;;;;;;5053017;28;20238;-78
2023/05/30 12:57:11;;;;;;;7.95;3.65;;;;;;;;;;5053441;28;20279;-78
2023/05/30 12:59:39;;;;;;;9.50;3.67;;;;;;;;;;5052514;28;20206;-78
2023/05/30 13:02:08;;;;;;;8.57;3.40;;;;;;;;;;5052567;28;20660;-78
2023/05/30 13:04:37;;;;;;;6.75;3.45;;;;;;;;;;5052523;28;20226;-78
2023/05/30 13:07:04;;;;;;;8.23;3.40;;;;;;;;;;5052830;28;20290;-78
2023/05/30 13:09:31;;;;;;;8.35;3.30;;;;;;;;;;5052611;28;20326;-78
2023/05/30 13:11:59;;;;;;;9.45;3.53;;;;;;;;;;5052824;28;20196;-78
2023/05/30 13:14:26;;;;;;;6.68;3.47;;;;;;;;;;5052122;28;20290;-78
2023/05/30 13:16:53;;;;;;;6.53;3.30;;;;;;;;;;5052658;28;20238;-78
2023/05/30 13:19:22;;;;;;;7.78;3.33;;;;;;;;;;5052969;28;20202;-78
2023/05/30 13:21:49;;;;;;;8.55;3.60;;;;;;;;;;5052410;28;20192;-78
2023/05/30 13:24:16;;;;;;;6.78;3.22;;;;;;;;;;5052287;28;20196;-78
2023/05/30 13:26:43;;;;;;;8.43;3.85;;;;;;;;;;5052395;28;20652;-78
2023/05/30 13:29:10;;;;;;;7.25;3.53;;;;;;;;;;5051768;28;20687;-78
2023/05/30 13:31:37;;;;;;;5.22;3.28;;;;;;;;;;5052480;28;20202;-79
2023/05/30 13:34:05;;;;;;;8.65;3.53;;;;;;;;;;5051820;28;20318;-79
2023/05/30 13:36:33;;;;;;;7.63;3.47;;;;;;;;;;5052227;28;20223;-78
2023/05/30 13:39:00;;;;;;;6.22;3.45;;;;;;;;;;5052293;28;20290;-78
2023/05/30 13:41:28;;;;;;;6.63;3.42;;;;;;;;;;5052172;28;20196;-78
2023/05/30 13:43:57;;;;;;;8.43;3.28;;;;;;;;;;5052058;28;20202;-78
2023/05/30 13:46:24;;;;;;;11.18;3.90;;;;;;;;;;5052058;28;20200;-79
2023/05/30 13:48:51;;;;;;;8.32;3.42;;;;;;;;;;5052127;28;20314;-78
2023/05/30 13:51:18;;;;;;;6.28;3.47;;;;;;;;;;5051687;28;20227;-77
2023/05/30 13:53:48;;;;;;;5.68;3.40;;;;;;;;;;5051972;28;20676;-78
2023/05/30 13:56:15;;;;;;;6.07;3.55;;;;;;;;;;5050280;28;20230;-79
2023/05/30 13:58:43;;;;;;;8.65;3.13;;;;;;;;;;5031340;28;20197;-78
2023/05/30 14:01:10;;;;;;;6.25;3.38;;;;;;;;;;5032057;28;20283;-78
2023/05/30 14:03:37;;;;;;;8.13;3.60;;;;;;;;;;5031972;28;20207;-78
2023/05/30 14:06:05;;;;;;;7.88;3.40;;;;;;;;;;5031760;28;20339;-78
2023/05/30 14:08:32;;;;;;;8.70;3.53;;;;;;;;;;5031659;28;20642;-79
2023/05/30 14:11:01;;;;;;;8.25;3.40;;;;;;;;;;5031718;28;20275;-79
2023/05/30 14:13:28;;;;;;;7.03;3.30;;;;;;;;;;5031444;28;20299;-80
2023/05/30 14:15:56;;;;;;;7.05;3.70;;;;;;;;;;5031620;28;20306;-78
2023/05/30 14:18:23;;;;;;;7.00;3.30;;;;;;;;;;5031462;28;20247;-78
2023/05/30 14:20:50;;;;;;;7.53;3.50;;;;;;;;;;5031364;28;20296;-79
2023/05/30 14:23:17;;;;;;;9.13;3.50;;;;;;;;;;5031552;28;20200;-79
2023/05/30 14:25:45;;;;;;;7.05;3.60;;;;;;;;;;5031392;28;20275;-79
2023/05/30 14:28:13;;;;;;;6.30;3.55;;;;;;;;;;5030787;28;20221;-78
2023/05/30 14:30:40;;;;;;;8.98;3.55;;;;;;;;;;5031706;28;20266;-79
2023/05/30 14:33:08;;;;;;;7.32;3.55;;;;;;;;;;5031520;28;20200;-79
2023/05/30 14:35:36;;;;;;;9.00;3.42;;;;;;;;;;5031003;28;20728;-79
2023/05/30 14:38:03;;;;;;;8.23;3.38;;;;;;;;;;5031562;28;20291;-78
2023/05/30 14:40:30;;;;;;;7.47;3.67;;;;;;;;;;5030786;28;20568;-79
2023/05/30 14:42:58;;;;;;;7.63;3.30;;;;;;;;;;5031345;28;20683;-80